Time;durP1;ratioP1;P1;durP2;ratioP2;P2;SDS_P1;SDS_P2;PMS_P1;PMS_P2;Temp;Humidity;BMP_temperature;BMP_pressure;BME280_temperature;BME280_humidity;BME280_pressure;Samples;Min_cycle;Max_cycle;Signal;HPM_P1;HPM_P2
2021/01/19 00:01:44;;;;;;;54.27;27.97;;;;;;;;;;4411532;32;20272;-53
2021/01/19 00:04:09;;;;;;;32.53;20.90;;;;;;;;;;4416734;32;20280;-54
2021/01/19 00:06:37;;;;;;;36.23;19.13;;;;;;;;;;4403799;32;20252;-58
2021/01/19 00:09:03;;;;;;;29.50;19.30;;;;;;;;;;4412168;32;20252;-55
2021/01/19 00:11:29;;;;;;;38.43;21.10;;;;;;;;;;4412828;32;20763;-55
2021/01/19 00:13:54;;;;;;;47.37;27.17;;;;;;;;;;4412736;32;20276;-55
2021/01/19 00:16:19;;;;;;;33.50;21.53;;;;;;;;;;4409185;32;20293;-54
2021/01/19 00:18:45;;;;;;;40.63;24.33;;;;;;;;;;4396500;32;20720;-56
2021/01/19 00:21:11;;;;;;;42.83;22.87;;;;;;;;;;4392840;32;20264;-56
2021/01/19 00:23:36;;;;;;;34.07;17.73;;;;;;;;;;4411804;32;20774;-56
2021/01/19 00:26:02;;;;;;;31.67;16.03;;;;;;;;;;4408246;32;20410;-56
2021/01/19 00:28:27;;;;;;;25.17;15.30;;;;;;;;;;4417359;32;20283;-55
2021/01/19 00:30:53;;;;;;;24.83;15.93;;;;;;;;;;4403717;32;20365;-55
2021/01/19 00:33:18;;;;;;;20.63;13.63;;;;;;;;;;4407331;32;20272;-55
2021/01/19 00:35:44;;;;;;;27.87;16.17;;;;;;;;;;4414358;32;20213;-56
2021/01/19 00:38:09;;;;;;;36.23;18.63;;;;;;;;;;4411829;32;20301;-55
2021/01/19 00:40:35;;;;;;;29.23;18.33;;;;;;;;;;4415682;32;20625;-56
2021/01/19 00:43:01;;;;;;;26.03;15.17;;;;;;;;;;4412666;32;20327;-55
2021/01/19 00:45:27;;;;;;;25.13;15.43;;;;;;;;;;4409193;32;20266;-53
2021/01/19 00:47:53;;;;;;;30.37;17.57;;;;;;;;;;4411126;32;20243;-55
2021/01/19 00:50:18;;;;;;;31.40;16.97;;;;;;;;;;4413681;32;20218;-54
2021/01/19 00:52:44;;;;;;;33.67;19.53;;;;;;;;;;4415461;32;20263;-53
2021/01/19 00:55:13;;;;;;;33.93;19.70;;;;;;;;;;4415860;32;20276;-55
2021/01/19 00:57:39;;;;;;;30.53;18.73;;;;;;;;;;4409605;32;20244;-57
2021/01/19 01:00:06;;;;;;;41.27;21.33;;;;;;;;;;4416931;32;20356;-54
2021/01/19 01:02:34;;;;;;;77.30;35.07;;;;;;;;;;4411734;32;20246;-55
2021/01/19 01:05:00;;;;;;;63.73;28.43;;;;;;;;;;4412551;32;20209;-55
2021/01/19 01:07:41;;;;;;;52.50;26.07;;;;;;;;;;4409454;32;20291;-55
2021/01/19 01:10:09;;;;;;;31.00;19.17;;;;;;;;;;4415910;32;20365;-55
2021/01/19 01:12:34;;;;;;;26.17;16.50;;;;;;;;;;4415504;32;20297;-56
2021/01/19 01:15:03;;;;;;;33.03;17.50;;;;;;;;;;4417396;32;20288;-55
2021/01/19 01:17:28;;;;;;;26.63;16.07;;;;;;;;;;4414623;32;20306;-55
2021/01/19 01:19:53;;;;;;;29.50;17.60;;;;;;;;;;4413896;32;20351;-56
2021/01/19 01:22:19;;;;;;;31.63;18.03;;;;;;;;;;4411056;32;20224;-55
2021/01/19 01:24:45;;;;;;;31.37;18.27;;;;;;;;;;4417141;32;20293;-57
2021/01/19 01:27:10;;;;;;;24.80;14.50;;;;;;;;;;4411172;32;20331;-56
2021/01/19 01:29:35;;;;;;;24.67;14.43;;;;;;;;;;4416509;32;20280;-56
2021/01/19 01:32:01;;;;;;;18.63;13.43;;;;;;;;;;4407517;32;20711;-56
2021/01/19 01:34:27;;;;;;;19.03;12.57;;;;;;;;;;4416831;32;20722;-55
2021/01/19 01:36:52;;;;;;;13.80;10.57;;;;;;;;;;4407271;32;20677;-56
2021/01/19 01:39:18;;;;;;;17.80;12.07;;;;;;;;;;4407479;32;20371;-57
2021/01/19 01:41:43;;;;;;;25.57;14.43;;;;;;;;;;4406034;32;20308;-57
2021/01/19 01:44:09;;;;;;;45.07;20.90;;;;;;;;;;4416980;32;20300;-56
2021/01/19 01:46:35;;;;;;;48.57;23.20;;;;;;;;;;4409649;32;20217;-57
2021/01/19 01:49:02;;;;;;;59.87;26.83;;;;;;;;;;4417402;32;20221;-56
2021/01/19 01:51:29;;;;;;;52.87;26.93;;;;;;;;;;4415233;32;20264;-55
2021/01/19 01:53:56;;;;;;;54.30;27.90;;;;;;;;;;4417099;32;20217;-56
2021/01/19 01:56:25;;;;;;;37.83;19.23;;;;;;;;;;4415531;32;20266;-55
2021/01/19 01:58:53;;;;;;;31.57;17.83;;;;;;;;;;4416805;32;20705;-55
2021/01/19 02:01:19;;;;;;;40.20;20.60;;;;;;;;;;4415207;32;20236;-55
2021/01/19 02:03:45;;;;;;;42.87;22.07;;;;;;;;;;4417211;32;20606;-56
2021/01/19 02:06:15;;;;;;;67.10;30.83;;;;;;;;;;4411416;32;20719;-54
2021/01/19 02:09:10;;;;;;;66.47;34.50;;;;;;;;;;4413932;32;20337;-53
2021/01/19 02:11:56;;;;;;;63.23;33.40;;;;;;;;;;4407133;32;20300;-54
2021/01/19 02:14:41;;;;;;;74.83;33.07;;;;;;;;;;4416618;32;20228;-56
2021/01/19 02:17:27;;;;;;;80.10;37.60;;;;;;;;;;4409660;32;20390;-54
2021/01/19 02:20:10;;;;;;;71.70;35.67;;;;;;;;;;4417633;32;20241;-54
2021/01/19 02:22:50;;;;;;;98.27;50.80;;;;;;;;;;4414609;32;20406;-54
2021/01/19 02:25:31;;;;;;;82.77;40.03;;;;;;;;;;4417587;32;20213;-58
2021/01/19 02:28:19;;;;;;;66.53;34.00;;;;;;;;;;4418029;32;20559;-56
2021/01/19 02:30:56;;;;;;;53.73;27.73;;;;;;;;;;4411033;32;20668;-55
2021/01/19 02:34:02;;;;;;;50.17;27.50;;;;;;;;;;4416202;32;20310;-56
2021/01/19 02:36:46;;;;;;;54.37;26.83;;;;;;;;;;4395363;32;20753;-55
2021/01/19 02:39:19;;;;;;;56.97;30.37;;;;;;;;;;4418336;32;20628;-54
2021/01/19 02:41:46;;;;;;;60.37;31.93;;;;;;;;;;4408806;32;20213;-55
2021/01/19 02:44:20;;;;;;;49.63;25.10;;;;;;;;;;4417638;32;20263;-55
2021/01/19 02:46:56;;;;;;;44.90;25.60;;;;;;;;;;4414245;32;20241;-55
2021/01/19 02:49:22;;;;;;;47.77;25.63;;;;;;;;;;4415553;32;20347;-55
2021/01/19 02:51:50;;;;;;;43.67;25.77;;;;;;;;;;4415156;32;20253;-55
2021/01/19 02:54:17;;;;;;;46.40;26.80;;;;;;;;;;4414822;32;20247;-54
2021/01/19 02:57:04;;;;;;;43.87;26.07;;;;;;;;;;4417272;32;20228;-55
2021/01/19 02:59:32;;;;;;;51.53;27.33;;;;;;;;;;4416801;32;20721;-55
2021/01/19 03:02:07;;;;;;;38.30;22.33;;;;;;;;;;4409433;32;20272;-55
2021/01/19 03:04:34;;;;;;;42.73;22.70;;;;;;;;;;4419442;32;20208;-54
2021/01/19 03:07:04;;;;;;;48.07;25.83;;;;;;;;;;4409350;32;20297;-54
2021/01/19 03:09:31;;;;;;;47.27;25.57;;;;;;;;;;4419141;32;20239;-55
2021/01/19 03:11:59;;;;;;;50.50;26.20;;;;;;;;;;4407615;32;20674;-55
2021/01/19 03:14:25;;;;;;;56.33;27.53;;;;;;;;;;4415877;32;20296;-54
2021/01/19 03:16:50;;;;;;;53.07;29.37;;;;;;;;;;4405749;32;20367;-55
2021/01/19 03:19:19;;;;;;;55.63;32.50;;;;;;;;;;4418870;32;21004;-55
2021/01/19 03:21:45;;;;;;;62.17;31.87;;;;;;;;;;4410224;32;20225;-55
2021/01/19 03:24:11;;;;;;;66.83;34.80;;;;;;;;;;4417987;32;20280;-54
2021/01/19 03:26:37;;;;;;;72.67;34.97;;;;;;;;;;4410485;32;20221;-55
2021/01/19 03:29:04;;;;;;;61.67;33.80;;;;;;;;;;4419024;32;20280;-56
2021/01/19 03:31:30;;;;;;;72.57;36.77;;;;;;;;;;4411506;32;20811;-54
2021/01/19 03:33:56;;;;;;;69.70;38.00;;;;;;;;;;4415527;32;20308;-55
2021/01/19 03:36:21;;;;;;;67.17;37.50;;;;;;;;;;4417281;32;20331;-53
2021/01/19 03:38:47;;;;;;;83.13;40.33;;;;;;;;;;4417776;32;20276;-55
2021/01/19 03:41:12;;;;;;;90.43;41.70;;;;;;;;;;4416534;32;20229;-54
2021/01/19 03:43:38;;;;;;;78.63;41.33;;;;;;;;;;4418483;32;20280;-56
2021/01/19 03:46:03;;;;;;;65.40;33.77;;;;;;;;;;4414970;32;20229;-58
2021/01/19 03:48:29;;;;;;;56.60;31.47;;;;;;;;;;4418438;32;20304;-57
2021/01/19 03:50:54;;;;;;;63.70;34.20;;;;;;;;;;4415419;32;20288;-57
2021/01/19 03:53:20;;;;;;;58.90;35.20;;;;;;;;;;4413572;32;20209;-57
2021/01/19 03:55:46;;;;;;;59.77;33.07;;;;;;;;;;4409018;32;20272;-58
2021/01/19 03:58:11;;;;;;;66.87;37.53;;;;;;;;;;4416470;32;20267;-58
2021/01/19 04:00:36;;;;;;;70.47;41.17;;;;;;;;;;4416280;32;20225;-57
2021/01/19 04:03:02;;;;;;;100.90;49.53;;;;;;;;;;4414544;32;20577;-57
2021/01/19 04:05:27;;;;;;;82.00;43.73;;;;;;;;;;4415926;32;20307;-57
2021/01/19 04:07:53;;;;;;;74.50;40.33;;;;;;;;;;4416067;32;20320;-56
2021/01/19 04:10:19;;;;;;;38.07;23.90;;;;;;;;;;4408741;32;20213;-57
2021/01/19 04:12:44;;;;;;;35.07;20.77;;;;;;;;;;4415309;32;20289;-56
2021/01/19 04:15:10;;;;;;;27.90;16.20;;;;;;;;;;4410401;32;20312;-54
2021/01/19 04:17:38;;;;;;;27.63;17.37;;;;;;;;;;4413891;32;20393;-56
2021/01/19 04:20:07;;;;;;;31.70;20.23;;;;;;;;;;4414520;32;20332;-55
2021/01/19 04:22:33;;;;;;;38.83;22.07;;;;;;;;;;4417731;32;20645;-56
2021/01/19 04:24:59;;;;;;;38.73;20.27;;;;;;;;;;4417147;32;20360;-55
2021/01/19 04:27:24;;;;;;;36.60;23.57;;;;;;;;;;4410577;32;20225;-55
2021/01/19 04:29:50;;;;;;;58.63;30.20;;;;;;;;;;4413978;32;20288;-55
2021/01/19 04:32:16;;;;;;;54.77;29.13;;;;;;;;;;4413116;32;20603;-56
2021/01/19 04:34:41;;;;;;;66.60;34.30;;;;;;;;;;4417742;32;20220;-56
2021/01/19 04:37:07;;;;;;;63.83;35.77;;;;;;;;;;4416416;32;20299;-55
2021/01/19 04:39:32;;;;;;;69.77;38.83;;;;;;;;;;4418019;32;20288;-56
2021/01/19 04:41:58;;;;;;;63.37;33.90;;;;;;;;;;4416580;32;20617;-56
2021/01/19 04:44:27;;;;;;;50.23;31.17;;;;;;;;;;4411749;32;20372;-56
2021/01/19 04:46:53;;;;;;;52.90;33.53;;;;;;;;;;4415626;32;20263;-56
2021/01/19 04:49:20;;;;;;;58.97;33.40;;;;;;;;;;4417277;32;20361;-57
2021/01/19 04:51:47;;;;;;;54.07;32.40;;;;;;;;;;4415766;32;20312;-57
2021/01/19 04:54:17;;;;;;;57.10;32.50;;;;;;;;;;4410279;32;20202;-57
2021/01/19 04:56:50;;;;;;;60.73;32.30;;;;;;;;;;4409667;32;20694;-56
2021/01/19 04:59:24;;;;;;;54.77;29.53;;;;;;;;;;4416751;32;20239;-57
2021/01/19 05:01:52;;;;;;;52.67;33.83;;;;;;;;;;4402519;32;20383;-56
2021/01/19 05:04:24;;;;;;;49.63;31.40;;;;;;;;;;4417583;32;20285;-53
2021/01/19 05:07:27;;;;;;;69.90;39.60;;;;;;;;;;4411530;32;20731;-54
2021/01/19 05:10:30;;;;;;;79.20;43.00;;;;;;;;;;4406831;32;20217;-54
2021/01/19 05:13:06;;;;;;;88.47;49.87;;;;;;;;;;4414209;32;20327;-55
2021/01/19 05:15:34;;;;;;;95.97;50.97;;;;;;;;;;4406330;32;20352;-53
2021/01/19 05:18:01;;;;;;;116.37;59.83;;;;;;;;;;4416095;32;20233;-55
2021/01/19 05:20:30;;;;;;;141.43;71.27;;;;;;;;;;4416931;32;20578;-54
2021/01/19 05:22:57;;;;;;;133.93;69.47;;;;;;;;;;4417644;32;20281;-54
2021/01/19 05:25:22;;;;;;;133.60;68.93;;;;;;;;;;4405856;32;20274;-54
2021/01/19 05:27:48;;;;;;;134.97;70.97;;;;;;;;;;4408824;32;20558;-53
2021/01/19 05:30:14;;;;;;;159.83;79.73;;;;;;;;;;4415819;32;20300;-54
2021/01/19 05:32:41;;;;;;;130.87;67.37;;;;;;;;;;4414964;32;20240;-55
2021/01/19 05:35:19;;;;;;;115.77;62.13;;;;;;;;;;4416546;32;20301;-55
2021/01/19 05:38:04;;;;;;;89.50;53.53;;;;;;;;;;4409411;32;20315;-54
2021/01/19 05:40:30;;;;;;;104.40;56.33;;;;;;;;;;4410564;32;20285;-55
2021/01/19 05:42:56;;;;;;;114.20;60.73;;;;;;;;;;4412363;32;20616;-56
2021/01/19 05:45:21;;;;;;;104.23;56.57;;;;;;;;;;4414318;32;20356;-54
2021/01/19 05:47:47;;;;;;;110.30;63.33;;;;;;;;;;4410819;32;20496;-54
2021/01/19 05:50:13;;;;;;;164.53;79.07;;;;;;;;;;4404772;32;20324;-54
2021/01/19 05:52:40;;;;;;;177.70;91.97;;;;;;;;;;4414839;32;20576;-54
2021/01/19 05:55:06;;;;;;;199.30;102.77;;;;;;;;;;4418197;32;20213;-54
2021/01/19 05:57:31;;;;;;;198.67;93.10;;;;;;;;;;4412946;32;20709;-56
2021/01/19 05:59:59;;;;;;;197.03;101.53;;;;;;;;;;4414062;32;20331;-55
2021/01/19 06:02:42;;;;;;;214.23;102.57;;;;;;;;;;4415896;32;20333;-55
2021/01/19 06:05:09;;;;;;;202.90;95.90;;;;;;;;;;4414865;32;20309;-54
2021/01/19 06:07:37;;;;;;;199.90;97.90;;;;;;;;;;4415072;32;20365;-55
2021/01/19 06:10:10;;;;;;;189.83;99.87;;;;;;;;;;4403267;32;20197;-59
2021/01/19 06:12:36;;;;;;;220.77;108.13;;;;;;;;;;4415763;32;20244;-58
2021/01/19 06:15:02;;;;;;;218.63;110.93;;;;;;;;;;4414021;32;20251;-56
2021/01/19 06:17:27;;;;;;;203.70;104.30;;;;;;;;;;4414044;32;20257;-56
2021/01/19 06:19:57;;;;;;;230.17;109.03;;;;;;;;;;4418413;32;20373;-55
2021/01/19 06:22:23;;;;;;;219.87;106.83;;;;;;;;;;4414818;32;20303;-54
2021/01/19 06:24:51;;;;;;;216.73;111.80;;;;;;;;;;4418316;32;20221;-55
2021/01/19 06:27:20;;;;;;;215.30;107.53;;;;;;;;;;4406830;32;20516;-59
2021/01/19 06:29:46;;;;;;;160.17;87.87;;;;;;;;;;4418722;32;20216;-58
2021/01/19 06:32:15;;;;;;;160.30;81.03;;;;;;;;;;4416990;32;20413;-58
2021/01/19 06:34:41;;;;;;;163.77;86.73;;;;;;;;;;4415761;32;20228;-62
2021/01/19 06:37:08;;;;;;;185.47;91.57;;;;;;;;;;4410975;32;20225;-55
2021/01/19 06:39:37;;;;;;;163.63;84.60;;;;;;;;;;4407646;32;20388;-56
2021/01/19 06:42:14;;;;;;;160.27;83.43;;;;;;;;;;4413537;32;20270;-55
2021/01/19 06:44:45;;;;;;;170.47;90.07;;;;;;;;;;4418251;32;20599;-57
2021/01/19 06:47:12;;;;;;;210.43;108.90;;;;;;;;;;4417803;32;20217;-57
2021/01/19 06:49:39;;;;;;;221.30;110.63;;;;;;;;;;4417143;32;20231;-55
2021/01/19 06:52:15;;;;;;;188.50;93.90;;;;;;;;;;4409779;32;20263;-56
2021/01/19 06:54:41;;;;;;;200.43;101.37;;;;;;;;;;4417173;32;20307;-57
2021/01/19 06:57:25;;;;;;;220.17;105.17;;;;;;;;;;4412963;32;20245;-57
2021/01/19 07:00:11;;;;;;;194.40;97.60;;;;;;;;;;4417154;32;20269;-57
2021/01/19 07:02:40;;;;;;;192.00;97.40;;;;;;;;;;4412750;32;20276;-57
2021/01/19 07:05:13;;;;;;;191.90;94.60;;;;;;;;;;4414520;32;20268;-57
2021/01/19 07:07:47;;;;;;;144.70;79.93;;;;;;;;;;4417210;32;20694;-56
2021/01/19 07:10:19;;;;;;;150.07;78.40;;;;;;;;;;4412945;32;20267;-56
2021/01/19 07:12:53;;;;;;;135.60;74.43;;;;;;;;;;4413537;32;20240;-56
2021/01/19 07:15:49;;;;;;;161.07;83.47;;;;;;;;;;4416872;32;20257;-59
2021/01/19 07:18:17;;;;;;;185.00;88.13;;;;;;;;;;4416430;32;20255;-58
2021/01/19 07:21:02;;;;;;;129.17;58.60;;;;;;;;;;4415473;32;20695;-58
2021/01/19 07:23:47;;;;;;;96.13;51.77;;;;;;;;;;4414934;32;20223;-57
2021/01/19 07:26:18;;;;;;;83.63;48.27;;;;;;;;;;4412167;32;20322;-55
2021/01/19 07:28:45;;;;;;;65.77;38.63;;;;;;;;;;4417940;32;20265;-56
2021/01/19 07:31:11;;;;;;;61.33;34.33;;;;;;;;;;4412536;32;20241;-56
2021/01/19 07:33:41;;;;;;;62.23;32.87;;;;;;;;;;4410955;32;20305;-57
2021/01/19 07:36:12;;;;;;;69.50;40.60;;;;;;;;;;4415137;32;20291;-58
2021/01/19 07:38:37;;;;;;;82.23;47.93;;;;;;;;;;4408995;32;20414;-57
2021/01/19 07:41:03;;;;;;;88.53;46.17;;;;;;;;;;4415243;32;20233;-57
2021/01/19 07:43:34;;;;;;;103.07;54.03;;;;;;;;;;4408691;32;20431;-57
2021/01/19 07:45:59;;;;;;;96.43;55.60;;;;;;;;;;4405386;32;20312;-57
2021/01/19 07:48:36;;;;;;;89.20;50.30;;;;;;;;;;4411448;32;20251;-58
2021/01/19 07:51:15;;;;;;;91.47;49.00;;;;;;;;;;4409422;32;20213;-57
2021/01/19 07:53:52;;;;;;;73.70;42.63;;;;;;;;;;4414381;32;20279;-58
2021/01/19 07:56:30;;;;;;;73.00;43.07;;;;;;;;;;4407718;32;20241;-56
2021/01/19 07:58:57;;;;;;;79.67;46.43;;;;;;;;;;4399569;32;20220;-54
2021/01/19 08:01:26;;;;;;;76.60;42.67;;;;;;;;;;4414211;32;20249;-53
2021/01/19 08:03:53;;;;;;;78.57;47.73;;;;;;;;;;4410364;32;20217;-52
2021/01/19 08:06:30;;;;;;;78.17;45.17;;;;;;;;;;4414532;32;20226;-52
2021/01/19 08:08:55;;;;;;;86.43;49.30;;;;;;;;;;4415382;32;20240;-53
2021/01/19 08:11:21;;;;;;;99.47;50.37;;;;;;;;;;4403927;32;20221;-53
2021/01/19 08:13:59;;;;;;;102.03;54.23;;;;;;;;;;4417419;32;20355;-54
2021/01/19 08:16:35;;;;;;;209.37;88.57;;;;;;;;;;4414629;32;20678;-55
2021/01/19 08:19:08;;;;;;;73.67;42.60;;;;;;;;;;4415693;32;20280;-54
2021/01/19 08:21:46;;;;;;;58.80;36.27;;;;;;;;;;4409659;32;20300;-54
2021/01/19 08:24:12;;;;;;;72.67;38.57;;;;;;;;;;4409976;32;20201;-53
2021/01/19 08:26:37;;;;;;;77.33;39.37;;;;;;;;;;4412842;32;20339;-53
2021/01/19 08:29:05;;;;;;;56.00;33.83;;;;;;;;;;4414544;32;20245;-53
2021/01/19 08:31:32;;;;;;;68.87;37.50;;;;;;;;;;4411516;32;20356;-53
2021/01/19 08:34:06;;;;;;;64.37;38.73;;;;;;;;;;4409719;32;20248;-52
2021/01/19 08:36:35;;;;;;;78.00;41.63;;;;;;;;;;4416499;32;20822;-51
2021/01/19 08:39:05;;;;;;;75.93;41.67;;;;;;;;;;4416908;32;20260;-52
2021/01/19 08:41:31;;;;;;;80.37;44.13;;;;;;;;;;4416850;32;21047;-52
2021/01/19 08:44:04;;;;;;;77.60;41.87;;;;;;;;;;4413705;32;20237;-52
2021/01/19 08:46:31;;;;;;;82.00;44.47;;;;;;;;;;4413283;32;20434;-53
2021/01/19 08:49:07;;;;;;;93.13;51.57;;;;;;;;;;4417307;32;20310;-53
2021/01/19 08:51:34;;;;;;;99.53;51.53;;;;;;;;;;4417354;32;20296;-53
2021/01/19 08:53:59;;;;;;;140.10;77.20;;;;;;;;;;4414642;32;20284;-53
2021/01/19 08:56:26;;;;;;;104.03;54.20;;;;;;;;;;4414935;32;20229;-52
2021/01/19 08:58:52;;;;;;;97.33;51.63;;;;;;;;;;4409656;32;20262;-57
2021/01/19 09:01:18;;;;;;;126.57;59.33;;;;;;;;;;4416687;32;20232;-57
2021/01/19 09:03:57;;;;;;;109.33;54.53;;;;;;;;;;4414987;32;20404;-58
2021/01/19 09:06:23;;;;;;;130.33;65.33;;;;;;;;;;4416228;32;20245;-57
2021/01/19 09:08:56;;;;;;;101.70;55.43;;;;;;;;;;4417354;32;20280;-57
2021/01/19 09:11:40;;;;;;;98.03;54.47;;;;;;;;;;4415711;32;20213;-58
2021/01/19 09:14:08;;;;;;;112.23;56.50;;;;;;;;;;4414930;32;20590;-56
2021/01/19 09:16:38;;;;;;;96.47;55.67;;;;;;;;;;4416849;32;20309;-58
2021/01/19 09:19:09;;;;;;;108.43;55.40;;;;;;;;;;4415572;32;20363;-57
2021/01/19 09:21:37;;;;;;;92.93;48.87;;;;;;;;;;4413496;32;20290;-57
2021/01/19 09:24:13;;;;;;;114.63;57.70;;;;;;;;;;4410085;32;20318;-57
2021/01/19 09:26:56;;;;;;;99.17;54.33;;;;;;;;;;4412675;32;20244;-57
2021/01/19 09:29:32;;;;;;;133.27;67.33;;;;;;;;;;4411629;32;20362;-58
2021/01/19 09:32:01;;;;;;;99.10;54.37;;;;;;;;;;4406891;32;20213;-57
2021/01/19 09:34:27;;;;;;;91.20;50.60;;;;;;;;;;4414964;32;20298;-57
2021/01/19 09:36:54;;;;;;;103.80;53.40;;;;;;;;;;4416193;32;20700;-57
2021/01/19 09:39:27;;;;;;;92.30;49.93;;;;;;;;;;4415092;32;20315;-52
2021/01/19 09:41:58;;;;;;;108.73;53.50;;;;;;;;;;4414358;32;20331;-52
2021/01/19 09:44:25;;;;;;;90.97;49.60;;;;;;;;;;4414296;32;21131;-51
2021/01/19 09:46:54;;;;;;;83.83;44.50;;;;;;;;;;4415365;32;20972;-52
2021/01/19 09:49:23;;;;;;;66.00;38.43;;;;;;;;;;4415590;32;20237;-52
2021/01/19 09:51:49;;;;;;;140.87;56.60;;;;;;;;;;4416813;32;20221;-52
2021/01/19 09:54:24;;;;;;;70.57;38.27;;;;;;;;;;4415950;32;20212;-53
2021/01/19 09:56:57;;;;;;;84.60;46.83;;;;;;;;;;4414692;32;20329;-53
2021/01/19 09:59:26;;;;;;;102.17;52.77;;;;;;;;;;4414971;32;20209;-51
2021/01/19 10:01:56;;;;;;;98.83;53.37;;;;;;;;;;4413837;32;20343;-51
2021/01/19 10:04:23;;;;;;;85.33;47.70;;;;;;;;;;4416370;32;20284;-51
2021/01/19 10:06:59;;;;;;;100.07;56.80;;;;;;;;;;4413045;32;20346;-52
2021/01/19 10:09:25;;;;;;;116.07;64.47;;;;;;;;;;4406433;32;20352;-54
2021/01/19 10:12:03;;;;;;;103.00;56.43;;;;;;;;;;4412938;32;20375;-53
2021/01/19 10:14:31;;;;;;;107.90;59.13;;;;;;;;;;4407808;32;20674;-52
2021/01/19 10:16:57;;;;;;;105.97;58.20;;;;;;;;;;4407353;32;20764;-56
2021/01/19 10:19:25;;;;;;;114.83;64.37;;;;;;;;;;4410698;32;20630;-57
2021/01/19 10:21:53;;;;;;;108.93;62.60;;;;;;;;;;4408867;32;20220;-56
2021/01/19 10:24:19;;;;;;;137.57;69.83;;;;;;;;;;4407756;32;20220;-57
2021/01/19 10:27:04;;;;;;;106.40;61.07;;;;;;;;;;4407834;32;20402;-57
2021/01/19 10:29:34;;;;;;;107.50;61.50;;;;;;;;;;4411170;32;20331;-52
2021/01/19 10:32:01;;;;;;;114.17;64.77;;;;;;;;;;4414825;32;20552;-53
2021/01/19 10:34:28;;;;;;;108.23;58.80;;;;;;;;;;4414332;32;20287;-53
2021/01/19 10:36:58;;;;;;;68.20;41.90;;;;;;;;;;4417602;32;20318;-52
2021/01/19 10:39:24;;;;;;;99.90;55.17;;;;;;;;;;4417655;32;20249;-53
2021/01/19 10:41:52;;;;;;;479.00;266.27;;;;;;;;;;4418310;32;20248;-53
2021/01/19 10:44:18;;;;;;;88.67;51.50;;;;;;;;;;4421380;32;20213;-52
2021/01/19 10:46:45;;;;;;;73.63;41.83;;;;;;;;;;4420643;32;20239;-51
2021/01/19 10:49:13;;;;;;;80.03;41.70;;;;;;;;;;4400106;32;21243;-52
2021/01/19 10:51:41;;;;;;;70.80;40.30;;;;;;;;;;4401706;32;20233;-52
2021/01/19 10:54:12;;;;;;;73.77;40.60;;;;;;;;;;4415037;32;20204;-52
2021/01/19 10:56:40;;;;;;;63.87;37.13;;;;;;;;;;4407570;32;20252;-53
2021/01/19 10:59:06;;;;;;;81.40;40.27;;;;;;;;;;4409754;32;20239;-53
2021/01/19 11:01:33;;;;;;;62.60;35.80;;;;;;;;;;4403557;32;20267;-53
2021/01/19 11:03:59;;;;;;;81.27;44.20;;;;;;;;;;4411379;32;20350;-52
2021/01/19 11:06:30;;;;;;;81.90;44.93;;;;;;;;;;4412701;32;20392;-52
2021/01/19 11:08:57;;;;;;;88.77;49.30;;;;;;;;;;4409531;32;20234;-53
2021/01/19 11:11:22;;;;;;;84.13;47.83;;;;;;;;;;4416632;32;20212;-53
2021/01/19 11:13:48;;;;;;;83.67;46.20;;;;;;;;;;4417220;32;20411;-54
2021/01/19 11:16:13;;;;;;;82.20;47.80;;;;;;;;;;4415247;32;20371;-51
2021/01/19 11:18:39;;;;;;;91.07;53.67;;;;;;;;;;4412404;32;20304;-51
2021/01/19 11:21:05;;;;;;;100.40;57.13;;;;;;;;;;4407016;32;20213;-51
2021/01/19 11:23:31;;;;;;;116.07;61.20;;;;;;;;;;4407583;32;20237;-52
2021/01/19 11:25:57;;;;;;;136.37;69.63;;;;;;;;;;4410891;32;20307;-51
2021/01/19 11:28:23;;;;;;;93.93;54.60;;;;;;;;;;4415592;32;20836;-51
2021/01/19 11:30:50;;;;;;;108.97;62.13;;;;;;;;;;4413116;32;20308;-53
2021/01/19 11:33:16;;;;;;;212.93;103.80;;;;;;;;;;4412215;32;20278;-51
2021/01/19 11:35:41;;;;;;;129.20;73.50;;;;;;;;;;4416534;32;20296;-53
2021/01/19 11:38:07;;;;;;;135.10;73.63;;;;;;;;;;4416443;32;20282;-53
2021/01/19 11:40:32;;;;;;;122.37;71.10;;;;;;;;;;4418400;32;20726;-53
2021/01/19 11:42:58;;;;;;;135.13;69.23;;;;;;;;;;4415862;32;20293;-53
2021/01/19 11:45:24;;;;;;;114.70;64.53;;;;;;;;;;4416169;32;20334;-52
2021/01/19 11:47:50;;;;;;;118.57;66.90;;;;;;;;;;4413467;32;20330;-55
2021/01/19 11:50:16;;;;;;;133.23;76.70;;;;;;;;;;4416910;32;20280;-54
2021/01/19 11:52:41;;;;;;;133.20;71.70;;;;;;;;;;4412552;32;20266;-52
2021/01/19 11:55:07;;;;;;;924.97;515.43;;;;;;;;;;4406981;32;20236;-51
2021/01/19 11:57:33;;;;;;;122.73;75.90;;;;;;;;;;4413520;32;20643;-52
2021/01/19 11:59:58;;;;;;;173.50;91.63;;;;;;;;;;4413651;32;20300;-51
2021/01/19 12:02:24;;;;;;;199.67;107.00;;;;;;;;;;4409428;32;20284;-51
2021/01/19 12:04:49;;;;;;;562.50;300.77;;;;;;;;;;4413400;32;20312;-51
2021/01/19 12:07:15;;;;;;;307.20;153.47;;;;;;;;;;4412022;32;20382;-52
2021/01/19 12:09:40;;;;;;;149.90;89.07;;;;;;;;;;4408665;32;20327;-52
2021/01/19 12:12:07;;;;;;;138.73;83.33;;;;;;;;;;4414864;32;20252;-51
2021/01/19 12:14:33;;;;;;;175.97;98.27;;;;;;;;;;4413781;32;20619;-51
2021/01/19 12:16:59;;;;;;;181.93;86.50;;;;;;;;;;4412898;32;20257;-53
2021/01/19 12:19:25;;;;;;;132.03;69.57;;;;;;;;;;4415469;32;20717;-51
2021/01/19 12:21:54;;;;;;;206.03;98.30;;;;;;;;;;4409217;32;20241;-54
2021/01/19 12:24:23;;;;;;;128.93;71.00;;;;;;;;;;4416019;32;20222;-54
2021/01/19 12:26:51;;;;;;;143.13;85.63;;;;;;;;;;4413446;32;20279;-53
2021/01/19 12:29:20;;;;;;;146.40;85.87;;;;;;;;;;4409620;32;20345;-59
2021/01/19 12:31:47;;;;;;;121.80;70.00;;;;;;;;;;4407256;32;20725;-58
2021/01/19 12:34:13;;;;;;;101.77;57.37;;;;;;;;;;4414675;32;20255;-59
2021/01/19 12:36:39;;;;;;;82.20;50.10;;;;;;;;;;4413197;32;20221;-58
2021/01/19 12:39:05;;;;;;;89.37;53.80;;;;;;;;;;4408805;32;20707;-55
2021/01/19 12:41:33;;;;;;;85.70;52.70;;;;;;;;;;4405864;32;20336;-58
2021/01/19 12:43:58;;;;;;;84.87;50.73;;;;;;;;;;4406297;32;20276;-57
2021/01/19 12:46:24;;;;;;;61.33;35.40;;;;;;;;;;4413830;32;20690;-55
2021/01/19 12:48:49;;;;;;;80.07;46.80;;;;;;;;;;4414370;32;20773;-57
2021/01/19 12:51:19;;;;;;;80.03;44.57;;;;;;;;;;4411862;32;20948;-56
2021/01/19 12:53:46;;;;;;;74.13;42.60;;;;;;;;;;4415967;32;20567;-55
2021/01/19 12:56:13;;;;;;;83.87;46.23;;;;;;;;;;4414185;32;20237;-56
2021/01/19 12:58:40;;;;;;;79.30;43.67;;;;;;;;;;4412851;32;20601;-57
2021/01/19 13:01:06;;;;;;;72.13;37.63;;;;;;;;;;4413027;32;20252;-56
2021/01/19 13:03:31;;;;;;;58.50;34.57;;;;;;;;;;4408053;32;20281;-56
2021/01/19 13:05:58;;;;;;;69.00;38.90;;;;;;;;;;4407781;32;20261;-56
2021/01/19 13:08:23;;;;;;;70.97;39.73;;;;;;;;;;4411895;32;20214;-57
2021/01/19 13:10:49;;;;;;;102.47;52.40;;;;;;;;;;4411084;32;20339;-58
2021/01/19 13:13:15;;;;;;;78.87;46.47;;;;;;;;;;4406768;32;20340;-57
2021/01/19 13:15:41;;;;;;;85.03;50.27;;;;;;;;;;4410529;32;20322;-58
2021/01/19 13:18:06;;;;;;;92.93;51.03;;;;;;;;;;4407031;32;20296;-58
2021/01/19 13:20:32;;;;;;;78.47;45.57;;;;;;;;;;4414168;32;20728;-59
2021/01/19 13:22:57;;;;;;;90.03;52.17;;;;;;;;;;4411106;32;20338;-58
2021/01/19 13:25:23;;;;;;;98.00;52.43;;;;;;;;;;4410349;32;20630;-56
2021/01/19 13:27:48;;;;;;;67.47;37.47;;;;;;;;;;4412600;32;20324;-57
2021/01/19 13:30:14;;;;;;;70.87;38.23;;;;;;;;;;4416307;32;20319;-57
2021/01/19 13:32:39;;;;;;;71.73;39.10;;;;;;;;;;4409820;32;20221;-55
2021/01/19 13:35:06;;;;;;;67.33;39.63;;;;;;;;;;4415148;32;20391;-56
2021/01/19 13:37:31;;;;;;;74.70;39.43;;;;;;;;;;4409178;32;20240;-56
2021/01/19 13:39:57;;;;;;;67.00;38.93;;;;;;;;;;4413037;32;20360;-55
2021/01/19 13:42:22;;;;;;;67.87;39.47;;;;;;;;;;4409442;32;20237;-56
2021/01/19 13:44:48;;;;;;;79.37;47.23;;;;;;;;;;4413035;32;20500;-56
2021/01/19 13:47:13;;;;;;;74.50;41.53;;;;;;;;;;4414090;32;20299;-56
2021/01/19 13:49:39;;;;;;;74.23;40.53;;;;;;;;;;4415841;32;20704;-56
2021/01/19 13:52:04;;;;;;;88.03;51.87;;;;;;;;;;4412107;32;20635;-54
2021/01/19 13:54:30;;;;;;;101.87;57.67;;;;;;;;;;4415743;32;20591;-56
2021/01/19 13:56:58;;;;;;;133.20;65.17;;;;;;;;;;4413653;32;20374;-57
2021/01/19 13:59:24;;;;;;;114.90;59.77;;;;;;;;;;4415140;32;20773;-56
2021/01/19 14:01:50;;;;;;;123.90;62.80;;;;;;;;;;4415213;32;20280;-53
2021/01/19 14:04:16;;;;;;;92.00;53.53;;;;;;;;;;4415825;32;20276;-55
2021/01/19 14:06:46;;;;;;;97.90;53.97;;;;;;;;;;4415048;32;20206;-55
2021/01/19 14:09:13;;;;;;;91.70;53.23;;;;;;;;;;4405581;32;20209;-54
2021/01/19 14:11:40;;;;;;;99.80;55.60;;;;;;;;;;4403545;32;20237;-54
2021/01/19 14:14:15;;;;;;;103.53;53.77;;;;;;;;;;4414460;32;20350;-53
2021/01/19 14:16:41;;;;;;;114.33;65.60;;;;;;;;;;4416990;32;20630;-57
2021/01/19 14:19:06;;;;;;;114.00;61.77;;;;;;;;;;4412666;32;20233;-56
2021/01/19 14:21:31;;;;;;;134.87;70.67;;;;;;;;;;4411313;32;20244;-57